David C. Devall — WCP2979 — position and weather

sailwx.info

Track history (hours):
 
Tides and Currents Weather Stations Pressure Air Temp Water Temp Dewpoint Dewpoint Depression Visibility Wind Speed Wind Dir Waves Ship Positions

David C. Devall

Owner: DAVID C DEVALL INC, HACKBERRY, LA. More information available from US FCC via Universal Licensing System and Coast Guard Vessel Documentation Center.

Last reported at 2017-Sep-25 13:08 UTC. Time now 2017-Sep-25 13:40 UTC.
Position N 29°47' W 095°04'.

Length 17 m; draft 8.5 m.

Type: Towing. MMSI: 366973440.

Date/timePositionNaut miles runAvg speedWind from/ knotsBaromVisibWave heightAir tempDewpointWater temp
2017-Sep-25 13:08N 29°47' W 095°04'0 0.0
2017-Sep-25 12:57N 29°47' W 095°04'0 0.0
2017-Sep-25 07:27N 29°47' W 095°04'0 0.0
2017-Sep-25 04:14N 29°47' W 095°04'0 0.0
2017-Sep-25 04:00N 29°47' W 095°04'0 0.0
2017-Sep-25 03:27N 29°47' W 095°04'0 0.0
2017-Sep-25 03:00N 29°47' W 095°04'0 0.0
2017-Sep-25 02:26N 29°47' W 095°04'0 0.0
2017-Sep-24 23:16N 29°47' W 095°04'0 0.0
2017-Sep-24 18:59N 29°47' W 095°04'0 0.0
2017-Sep-24 16:56N 29°47' W 095°04'0 0.0
2017-Sep-24 15:54N 29°47' W 095°04'0 0.0
2017-Sep-24 15:17N 29°47' W 095°04'0 0.0
2017-Sep-24 14:57N 29°47' W 095°04'0 0.0
2017-Sep-24 13:38N 29°47' W 095°04'0 0.0
2017-Sep-24 13:23N 29°47' W 095°04'0 0.0
2017-Sep-24 12:22N 29°47' W 095°04'0 0.0
2017-Sep-24 11:49N 29°47' W 095°04'0 0.0
2017-Sep-24 08:44N 29°47' W 095°04'0 0.0
2017-Sep-24 06:13N 29°47' W 095°04'0 0.0
2017-Sep-24 05:51N 29°47' W 095°04'0 0.0
2017-Sep-24 05:26N 29°47' W 095°04'0 0.0
2017-Sep-24 04:44N 29°47' W 095°04'0 0.0
2017-Sep-24 04:25N 29°47' W 095°04'0 0.0
2017-Sep-24 04:00N 29°47' W 095°04'0 0.0
2017-Sep-24 03:29N 29°47' W 095°04'0 0.0
2017-Sep-24 03:00N 29°47' W 095°04'0 0.0
2017-Sep-24 02:28N 29°47' W 095°04'0 0.0
2017-Sep-24 02:00N 29°47' W 095°04'0 0.0
2017-Sep-24 01:30N 29°47' W 095°04'0 0.0
2017-Sep-24 00:54N 29°47' W 095°04'0 0.0
2017-Sep-24 00:30N 29°47' W 095°04'0 0.0
2017-Sep-24 00:00N 29°47' W 095°04'0 0.0
2017-Sep-23 23:29N 29°47' W 095°04'0 0.0
2017-Sep-23 22:59N 29°47' W 095°04'0 0.0
2017-Sep-23 22:16N 29°47' W 095°04'0 0.0
2017-Sep-23 21:41N 29°47' W 095°04'0 0.0
2017-Sep-23 21:27N 29°47' W 095°04'0 0.0
2017-Sep-23 21:00N 29°47' W 095°04'0 0.0
2017-Sep-23 20:26N 29°47' W 095°04'0 0.0
2017-Sep-23 19:42N 29°47' W 095°04'  
2017-Sep-20 07:49N 30°03' W 093°42'2 6.2
2017-Sep-20 07:30N 30°04' W 093°40'3 6.0
2017-Sep-20 07:00N 30°04' W 093°36'3 5.5
2017-Sep-20 06:30N 30°04' W 093°33'3 5.4
2017-Sep-20 06:00N 30°04' W 093°30'3 5.4
2017-Sep-20 05:30N 30°04' W 093°27'3 5.1
2017-Sep-20 05:00N 30°04' W 093°24'3 5.0
2017-Sep-20 04:30N 30°04' W 093°21'1 3.0
2017-Sep-20 04:01N 30°05' W 093°20'0 0.0
2017-Sep-20 03:30N 30°05' W 093°20'2 3.4
2017-Sep-20 03:00N 30°04' W 093°21'0 0.0
2017-Sep-20 02:30N 30°04' W 093°21'0 0.0
2017-Sep-20 02:00N 30°04' W 093°21'0 0.0
2017-Sep-20 01:30N 30°04' W 093°21'0 0.0
2017-Sep-19 21:35N 30°04' W 093°21'0 0.0
2017-Sep-19 21:30N 30°04' W 093°21'0 0.0
2017-Sep-19 21:00N 30°04' W 093°21'1 1.4
2017-Sep-19 20:31N 30°04' W 093°21'0 0.5
2017-Sep-19 20:01N 30°04' W 093°20'1 1.7
2017-Sep-19 19:30N 30°05' W 093°20'0 0.0
2017-Sep-19 19:00N 30°05' W 093°20'0 0.0
2017-Sep-19 18:30N 30°05' W 093°20'0 0.0
2017-Sep-19 15:28N 30°05' W 093°20'1 1.2
2017-Sep-19 15:00N 30°05' W 093°20'3 5.4
2017-Sep-19 14:30N 30°08' W 093°19'0 0.3
2017-Sep-19 14:00N 30°08' W 093°19'0 0.0
2017-Sep-19 13:30N 30°08' W 093°19'0 0.0
2017-Sep-19 13:00N 30°08' W 093°19'0 0.0
2017-Sep-19 12:30N 30°08' W 093°19'0 0.0
2017-Sep-19 12:00N 30°08' W 093°19'0 0.2
2017-Sep-19 11:30N 30°08' W 093°19'1 2.1
2017-Sep-19 11:00N 30°07' W 093°20'3 5.1
2017-Sep-19 10:31N 30°05' W 093°20'0 0.0
2017-Sep-19 10:00N 30°05' W 093°20'0 0.0
2017-Sep-19 09:30N 30°05' W 093°20'0 0.0
2017-Sep-19 09:00N 30°05' W 093°20'0 0.0
2017-Sep-19 08:30N 30°05' W 093°20'0 0.0
2017-Sep-19 08:00N 30°05' W 093°20'0 0.0
2017-Sep-19 07:30N 30°05' W 093°20'0 0.0
2017-Sep-19 07:00N 30°05' W 093°20'0 0.0
2017-Sep-19 06:30N 30°05' W 093°20'0 0.0
2017-Sep-19 06:00N 30°05' W 093°20'0 0.0
2017-Sep-19 05:30N 30°05' W 093°20'0 0.0
2017-Sep-19 05:00N 30°05' W 093°20'0 0.0
2017-Sep-19 04:30N 30°05' W 093°20'0 0.0
2017-Sep-19 04:00N 30°05' W 093°20'0 0.0
2017-Sep-19 03:30N 30°05' W 093°20'0 0.0
2017-Sep-19 03:00N 30°05' W 093°20'0 0.8
2017-Sep-19 02:30N 30°05' W 093°20'1 1.0
2017-Sep-19 02:00N 30°04' W 093°20'1 2.0
2017-Sep-19 01:30N 30°05' W 093°20'2 3.7
2017-Sep-19 01:00N 30°07' W 093°20'2 4.5
2017-Sep-19 00:30N 30°09' W 093°20'1 2.9
2017-Sep-19 00:00N 30°10' W 093°19'2 4.1
2017-Sep-18 23:30N 30°12' W 093°17'2 4.1
2017-Sep-18 23:00N 30°13' W 093°15'1 2.6
2017-Sep-18 22:30N 30°14' W 093°15'0 0.2
2017-Sep-18 22:00N 30°14' W 093°15'1 2.2
2017-Sep-18 21:30N 30°13' W 093°15'1 2.6
2017-Sep-18 21:01N 30°12' W 093°16'2 3.9
2017-Sep-18 20:30N 30°11' W 093°18'0 0.0
2017-Sep-18 20:00N 30°11' W 093°18'0 0.0
2017-Sep-18 19:30N 30°11' W 093°18'1 1.7
2017-Sep-18 19:00N 30°11' W 093°19'2 4.7
2017-Sep-18 18:30N 30°09' W 093°20'2 4.9
2017-Sep-18 18:00N 30°06' W 093°20'1 2.6
2017-Sep-18 17:30N 30°06' W 093°18'0 0.0
2017-Sep-18 17:01N 30°06' W 093°18'0 0.0
2017-Sep-18 16:30N 30°06' W 093°18'0 0.0
2017-Sep-18 16:00N 30°06' W 093°18'1 1.2
2017-Sep-18 15:30N 30°06' W 093°19'3 5.2
2017-Sep-18 15:00N 30°04' W 093°21'3 5.1
2017-Sep-18 14:30N 30°04' W 093°24'3 6.2
2017-Sep-18 14:00N 30°04' W 093°27'3 6.2
2017-Sep-18 13:30N 30°04' W 093°31'3 6.2
2017-Sep-18 12:59N 30°04' W 093°35'4 6.4
2017-Sep-18 12:20N 30°04' W 093°39'72 2.8
2017-Sep-17 10:46N 29°30' W 094°53'2 7.2
2017-Sep-17 10:30N 29°32' W 094°54'4 7.6
2017-Sep-17 10:00N 29°35' W 094°56'6 7.4
2017-Sep-17 09:14N 29°40' W 094°59'2 7.3
2017-Sep-17 09:00N 29°42' W 094°60'6 6.8
2017-Sep-17 08:04N 29°46' W 095°05'0 0.2
2017-Sep-17 07:57N 29°46' W 095°05'1 0.2
2017-Sep-17 04:38N 29°46' W 095°06'1 5.4
2017-Sep-17 04:28N 29°46' W 095°05'3 5.7
2017-Sep-17 03:58N 29°44' W 095°03'2 5.0
2017-Sep-17 03:30N 29°42' W 095°01'3 5.2
2017-Sep-17 03:00N 29°40' W 094°59'3 5.4
2017-Sep-17 02:30N 29°38' W 094°58'3 6.2
2017-Sep-17 02:00N 29°35' W 094°56'3 6.2
2017-Sep-17 01:30N 29°33' W 094°54'3 5.9
2017-Sep-17 01:00N 29°30' W 094°52'25 1.4
2017-Sep-16 06:35N 29°36' W 094°24'25 4.4
2017-Sep-16 00:45N 29°31' W 094°53'2 8.4
2017-Sep-16 00:30N 29°32' W 094°54'4 7.8
2017-Sep-16 00:00N 29°36' W 094°56'5 8.1
2017-Sep-15 23:21N 29°40' W 094°59'8 2.0
2017-Sep-15 19:25N 29°46' W 095°05'1 0.8
2017-Sep-15 17:43N 29°47' W 095°05'1 2.4
2017-Sep-15 17:21N 29°46' W 095°05'2 7.1
2017-Sep-15 17:00N 29°44' W 095°03'3 6.9
2017-Sep-15 16:30N 29°42' W 095°00'4 7.4
2017-Sep-15 16:00N 29°39' W 094°58'4 8.4
2017-Sep-15 15:30N 29°35' W 094°56'4 8.6
2017-Sep-15 14:59N 29°31' W 094°53'  
Track history (hours):
 
Tides and Currents Weather Stations Pressure Air Temp Water Temp Dewpoint Dewpoint Depression Visibility Wind Speed Wind Dir Waves Ship Positions

David C. Devall

Owner: DAVID C DEVALL INC, HACKBERRY, LA. More information available from US FCC via Universal Licensing System and Coast Guard Vessel Documentation Center.

Last reported at 2017-Sep-25 13:08 UTC. Time now 2017-Sep-25 13:40 UTC.
Position N 29°47' W 095°04'.

Length 17 m; draft 8.5 m.

Type: Towing. MMSI: 366973440.

Date/timePositionNaut miles runAvg speedWind from/ knotsBaromVisibWave heightAir tempDewpointWater temp
2017-Sep-25 13:08N 29°47' W 095°04'0 0.0
2017-Sep-25 12:57N 29°47' W 095°04'0 0.0
2017-Sep-25 07:27N 29°47' W 095°04'0 0.0
2017-Sep-25 04:14N 29°47' W 095°04'0 0.0
2017-Sep-25 04:00N 29°47' W 095°04'0 0.0
2017-Sep-25 03:27N 29°47' W 095°04'0 0.0
2017-Sep-25 03:00N 29°47' W 095°04'0 0.0
2017-Sep-25 02:26N 29°47' W 095°04'0 0.0
2017-Sep-24 23:16N 29°47' W 095°04'0 0.0
2017-Sep-24 18:59N 29°47' W 095°04'0 0.0
2017-Sep-24 16:56N 29°47' W 095°04'0 0.0
2017-Sep-24 15:54N 29°47' W 095°04'0 0.0
2017-Sep-24 15:17N 29°47' W 095°04'0 0.0
2017-Sep-24 14:57N 29°47' W 095°04'0 0.0
2017-Sep-24 13:38N 29°47' W 095°04'0 0.0
2017-Sep-24 13:23N 29°47' W 095°04'0 0.0
2017-Sep-24 12:22N 29°47' W 095°04'0 0.0
2017-Sep-24 11:49N 29°47' W 095°04'0 0.0
2017-Sep-24 08:44N 29°47' W 095°04'0 0.0
2017-Sep-24 06:13N 29°47' W 095°04'0 0.0
2017-Sep-24 05:51N 29°47' W 095°04'0 0.0
2017-Sep-24 05:26N 29°47' W 095°04'0 0.0
2017-Sep-24 04:44N 29°47' W 095°04'0 0.0
2017-Sep-24 04:25N 29°47' W 095°04'0 0.0
2017-Sep-24 04:00N 29°47' W 095°04'0 0.0
2017-Sep-24 03:29N 29°47' W 095°04'0 0.0
2017-Sep-24 03:00N 29°47' W 095°04'0 0.0
2017-Sep-24 02:28N 29°47' W 095°04'0 0.0
2017-Sep-24 02:00N 29°47' W 095°04'0 0.0
2017-Sep-24 01:30N 29°47' W 095°04'0 0.0
2017-Sep-24 00:54N 29°47' W 095°04'0 0.0
2017-Sep-24 00:30N 29°47' W 095°04'0 0.0
2017-Sep-24 00:00N 29°47' W 095°04'0 0.0
2017-Sep-23 23:29N 29°47' W 095°04'0 0.0
2017-Sep-23 22:59N 29°47' W 095°04'0 0.0
2017-Sep-23 22:16N 29°47' W 095°04'0 0.0
2017-Sep-23 21:41N 29°47' W 095°04'0 0.0
2017-Sep-23 21:27N 29°47' W 095°04'0 0.0
2017-Sep-23 21:00N 29°47' W 095°04'0 0.0
2017-Sep-23 20:26N 29°47' W 095°04'0 0.0
2017-Sep-23 19:42N 29°47' W 095°04'  
2017-Sep-20 07:49N 30°03' W 093°42'2 6.2
2017-Sep-20 07:30N 30°04' W 093°40'3 6.0
2017-Sep-20 07:00N 30°04' W 093°36'3 5.5
2017-Sep-20 06:30N 30°04' W 093°33'3 5.4
2017-Sep-20 06:00N 30°04' W 093°30'3 5.4
2017-Sep-20 05:30N 30°04' W 093°27'3 5.1
2017-Sep-20 05:00N 30°04' W 093°24'3 5.0
2017-Sep-20 04:30N 30°04' W 093°21'1 3.0
2017-Sep-20 04:01N 30°05' W 093°20'0 0.0
2017-Sep-20 03:30N 30°05' W 093°20'2 3.4
2017-Sep-20 03:00N 30°04' W 093°21'0 0.0
2017-Sep-20 02:30N 30°04' W 093°21'0 0.0
2017-Sep-20 02:00N 30°04' W 093°21'0 0.0
2017-Sep-20 01:30N 30°04' W 093°21'0 0.0
2017-Sep-19 21:35N 30°04' W 093°21'0 0.0
2017-Sep-19 21:30N 30°04' W 093°21'0 0.0
2017-Sep-19 21:00N 30°04' W 093°21'1 1.4
2017-Sep-19 20:31N 30°04' W 093°21'0 0.5
2017-Sep-19 20:01N 30°04' W 093°20'1 1.7
2017-Sep-19 19:30N 30°05' W 093°20'0 0.0
2017-Sep-19 19:00N 30°05' W 093°20'0 0.0
2017-Sep-19 18:30N 30°05' W 093°20'0 0.0
2017-Sep-19 15:28N 30°05' W 093°20'1 1.2
2017-Sep-19 15:00N 30°05' W 093°20'3 5.4
2017-Sep-19 14:30N 30°08' W 093°19'0 0.3
2017-Sep-19 14:00N 30°08' W 093°19'0 0.0
2017-Sep-19 13:30N 30°08' W 093°19'0 0.0
2017-Sep-19 13:00N 30°08' W 093°19'0 0.0
2017-Sep-19 12:30N 30°08' W 093°19'0 0.0
2017-Sep-19 12:00N 30°08' W 093°19'0 0.2
2017-Sep-19 11:30N 30°08' W 093°19'1 2.1
2017-Sep-19 11:00N 30°07' W 093°20'3 5.1
2017-Sep-19 10:31N 30°05' W 093°20'0 0.0
2017-Sep-19 10:00N 30°05' W 093°20'0 0.0
2017-Sep-19 09:30N 30°05' W 093°20'0 0.0
2017-Sep-19 09:00N 30°05' W 093°20'0 0.0
2017-Sep-19 08:30N 30°05' W 093°20'0 0.0
2017-Sep-19 08:00N 30°05' W 093°20'0 0.0
2017-Sep-19 07:30N 30°05' W 093°20'0 0.0
2017-Sep-19 07:00N 30°05' W 093°20'0 0.0
2017-Sep-19 06:30N 30°05' W 093°20'0 0.0
2017-Sep-19 06:00N 30°05' W 093°20'0 0.0
2017-Sep-19 05:30N 30°05' W 093°20'0 0.0
2017-Sep-19 05:00N 30°05' W 093°20'0 0.0
2017-Sep-19 04:30N 30°05' W 093°20'0 0.0
2017-Sep-19 04:00N 30°05' W 093°20'0 0.0
2017-Sep-19 03:30N 30°05' W 093°20'0 0.0
2017-Sep-19 03:00N 30°05' W 093°20'0 0.8
2017-Sep-19 02:30N 30°05' W 093°20'1 1.0
2017-Sep-19 02:00N 30°04' W 093°20'1 2.0
2017-Sep-19 01:30N 30°05' W 093°20'2 3.7
2017-Sep-19 01:00N 30°07' W 093°20'2 4.5
2017-Sep-19 00:30N 30°09' W 093°20'1 2.9
2017-Sep-19 00:00N 30°10' W 093°19'2 4.1
2017-Sep-18 23:30N 30°12' W 093°17'2 4.1
2017-Sep-18 23:00N 30°13' W 093°15'1 2.6
2017-Sep-18 22:30N 30°14' W 093°15'0 0.2
2017-Sep-18 22:00N 30°14' W 093°15'1 2.2
2017-Sep-18 21:30N 30°13' W 093°15'1 2.6
2017-Sep-18 21:01N 30°12' W 093°16'2 3.9
2017-Sep-18 20:30N 30°11' W 093°18'0 0.0
2017-Sep-18 20:00N 30°11' W 093°18'0 0.0
2017-Sep-18 19:30N 30°11' W 093°18'1 1.7
2017-Sep-18 19:00N 30°11' W 093°19'2 4.7
2017-Sep-18 18:30N 30°09' W 093°20'2 4.9
2017-Sep-18 18:00N 30°06' W 093°20'1 2.6
2017-Sep-18 17:30N 30°06' W 093°18'0 0.0
2017-Sep-18 17:01N 30°06' W 093°18'0 0.0
2017-Sep-18 16:30N 30°06' W 093°18'0 0.0
2017-Sep-18 16:00N 30°06' W 093°18'1 1.2
2017-Sep-18 15:30N 30°06' W 093°19'3 5.2
2017-Sep-18 15:00N 30°04' W 093°21'3 5.1
2017-Sep-18 14:30N 30°04' W 093°24'3 6.2
2017-Sep-18 14:00N 30°04' W 093°27'3 6.2
2017-Sep-18 13:30N 30°04' W 093°31'3 6.2
2017-Sep-18 12:59N 30°04' W 093°35'4 6.4
2017-Sep-18 12:20N 30°04' W 093°39'72 2.8
2017-Sep-17 10:46N 29°30' W 094°53'2 7.2
2017-Sep-17 10:30N 29°32' W 094°54'4 7.6
2017-Sep-17 10:00N 29°35' W 094°56'6 7.4
2017-Sep-17 09:14N 29°40' W 094°59'2 7.3
2017-Sep-17 09:00N 29°42' W 094°60'6 6.8
2017-Sep-17 08:04N 29°46' W 095°05'0 0.2
2017-Sep-17 07:57N 29°46' W 095°05'1 0.2
2017-Sep-17 04:38N 29°46' W 095°06'1 5.4
2017-Sep-17 04:28N 29°46' W 095°05'3 5.7
2017-Sep-17 03:58N 29°44' W 095°03'2 5.0
2017-Sep-17 03:30N 29°42' W 095°01'3 5.2
2017-Sep-17 03:00N 29°40' W 094°59'3 5.4
2017-Sep-17 02:30N 29°38' W 094°58'3 6.2
2017-Sep-17 02:00N 29°35' W 094°56'3 6.2
2017-Sep-17 01:30N 29°33' W 094°54'3 5.9
2017-Sep-17 01:00N 29°30' W 094°52'25 1.4
2017-Sep-16 06:35N 29°36' W 094°24'25 4.4
2017-Sep-16 00:45N 29°31' W 094°53'2 8.4
2017-Sep-16 00:30N 29°32' W 094°54'4 7.8
2017-Sep-16 00:00N 29°36' W 094°56'5 8.1
2017-Sep-15 23:21N 29°40' W 094°59'8 2.0
2017-Sep-15 19:25N 29°46' W 095°05'1 0.8
2017-Sep-15 17:43N 29°47' W 095°05'1 2.4
2017-Sep-15 17:21N 29°46' W 095°05'2 7.1
2017-Sep-15 17:00N 29°44' W 095°03'3 6.9
2017-Sep-15 16:30N 29°42' W 095°00'4 7.4
2017-Sep-15 16:00N 29°39' W 094°58'4 8.4
2017-Sep-15 15:30N 29°35' W 094°56'4 8.6
2017-Sep-15 14:59N 29°31' W 094°53'  

Dump ship's entire track history